sensor_id;sensor_type;location;lat;lon;timestamp;P1;durP1;ratioP1;P2;durP2;ratioP2
417;SDS011;49;48.530;9.200;2022-12-24T00:01:46;5.37;;;2.70;;
417;SDS011;49;48.530;9.200;2022-12-24T00:04:15;9.90;;;3.37;;
417;SDS011;49;48.530;9.200;2022-12-24T00:06:45;10.53;;;4.20;;
417;SDS011;49;48.530;9.200;2022-12-24T00:09:12;15.47;;;4.73;;
417;SDS011;49;48.530;9.200;2022-12-24T00:11:39;10.87;;;2.80;;
417;SDS011;49;48.530;9.200;2022-12-24T00:14:08;9.10;;;2.77;;
417;SDS011;49;48.530;9.200;2022-12-24T00:16:35;6.20;;;2.70;;
417;SDS011;49;48.530;9.200;2022-12-24T00:19:03;10.90;;;3.10;;
417;SDS011;49;48.530;9.200;2022-12-24T00:21:30;7.57;;;2.87;;
417;SDS011;49;48.530;9.200;2022-12-24T00:23:57;8.67;;;3.43;;
417;SDS011;49;48.530;9.200;2022-12-24T00:26:27;12.33;;;3.13;;
417;SDS011;49;48.530;9.200;2022-12-24T00:28:54;6.10;;;2.80;;
417;SDS011;49;48.530;9.200;2022-12-24T00:31:21;9.30;;;4.10;;
417;SDS011;49;48.530;9.200;2022-12-24T00:33:48;7.70;;;2.90;;
417;SDS011;49;48.530;9.200;2022-12-24T00:36:17;8.27;;;2.90;;
417;SDS011;49;48.530;9.200;2022-12-24T00:38:45;9.50;;;3.47;;
417;SDS011;49;48.530;9.200;2022-12-24T00:41:13;8.30;;;3.33;;
417;SDS011;49;48.530;9.200;2022-12-24T00:43:49;11.57;;;3.63;;
417;SDS011;49;48.530;9.200;2022-12-24T00:46:17;18.40;;;3.77;;
417;SDS011;49;48.530;9.200;2022-12-24T00:48:44;9.57;;;3.50;;
417;SDS011;49;48.530;9.200;2022-12-24T00:51:11;10.97;;;3.47;;
417;SDS011;49;48.530;9.200;2022-12-24T00:53:40;13.80;;;4.70;;
417;SDS011;49;48.530;9.200;2022-12-24T00:56:07;14.37;;;4.20;;
417;SDS011;49;48.530;9.200;2022-12-24T00:58:34;8.60;;;2.90;;
417;SDS011;49;48.530;9.200;2022-12-24T01:01:01;8.50;;;3.80;;
417;SDS011;49;48.530;9.200;2022-12-24T01:03:28;8.47;;;3.27;;
417;SDS011;49;48.530;9.200;2022-12-24T01:06:01;6.97;;;3.33;;
417;SDS011;49;48.530;9.200;2022-12-24T01:08:28;8.90;;;3.10;;
417;SDS011;49;48.530;9.200;2022-12-24T01:10:57;10.50;;;3.30;;
417;SDS011;49;48.530;9.200;2022-12-24T01:13:25;16.80;;;4.07;;
417;SDS011;49;48.530;9.200;2022-12-24T01:15:52;12.47;;;3.60;;
417;SDS011;49;48.530;9.200;2022-12-24T01:18:19;6.13;;;3.60;;
417;SDS011;49;48.530;9.200;2022-12-24T01:20:53;12.30;;;3.40;;
417;SDS011;49;48.530;9.200;2022-12-24T01:23:22;9.00;;;3.13;;
417;SDS011;49;48.530;9.200;2022-12-24T01:25:49;10.77;;;3.43;;
417;SDS011;49;48.530;9.200;2022-12-24T01:28:17;6.33;;;2.70;;
417;SDS011;49;48.530;9.200;2022-12-24T01:30:45;16.17;;;3.20;;
417;SDS011;49;48.530;9.200;2022-12-24T01:33:12;8.83;;;3.03;;
417;SDS011;49;48.530;9.200;2022-12-24T01:35:39;8.93;;;3.53;;
417;SDS011;49;48.530;9.200;2022-12-24T01:38:07;8.37;;;2.83;;
417;SDS011;49;48.530;9.200;2022-12-24T01:40:41;5.63;;;3.03;;
417;SDS011;49;48.530;9.200;2022-12-24T01:43:36;8.30;;;3.87;;
417;SDS011;49;48.530;9.200;2022-12-24T01:46:02;8.90;;;3.50;;
417;SDS011;49;48.530;9.200;2022-12-24T01:48:33;10.03;;;3.50;;
417;SDS011;49;48.530;9.200;2022-12-24T01:51:04;9.03;;;3.83;;
417;SDS011;49;48.530;9.200;2022-12-24T01:53:35;10.40;;;3.37;;
417;SDS011;49;48.530;9.200;2022-12-24T01:56:04;8.70;;;3.17;;
417;SDS011;49;48.530;9.200;2022-12-24T01:58:33;13.57;;;3.47;;
417;SDS011;49;48.530;9.200;2022-12-24T02:01:03;10.83;;;3.80;;
417;SDS011;49;48.530;9.200;2022-12-24T02:03:30;14.87;;;3.77;;
417;SDS011;49;48.530;9.200;2022-12-24T02:05:57;8.60;;;3.33;;
417;SDS011;49;48.530;9.200;2022-12-24T02:08:25;19.83;;;3.53;;
417;SDS011;49;48.530;9.200;2022-12-24T02:11:08;12.30;;;3.70;;
417;SDS011;49;48.530;9.200;2022-12-24T02:13:37;11.90;;;3.30;;
417;SDS011;49;48.530;9.200;2022-12-24T02:16:07;13.10;;;4.40;;
417;SDS011;49;48.530;9.200;2022-12-24T02:18:43;10.43;;;3.40;;
417;SDS011;49;48.530;9.200;2022-12-24T02:21:21;21.43;;;4.50;;
417;SDS011;49;48.530;9.200;2022-12-24T02:24:10;8.90;;;3.63;;
417;SDS011;49;48.530;9.200;2022-12-24T02:27:07;12.63;;;3.90;;
417;SDS011;49;48.530;9.200;2022-12-24T02:35:33;21.00;;;4.17;;
417;SDS011;49;48.530;9.200;2022-12-24T02:38:10;16.53;;;4.20;;
417;SDS011;49;48.530;9.200;2022-12-24T02:40:45;14.20;;;3.87;;
417;SDS011;49;48.530;9.200;2022-12-24T02:43:18;7.10;;;3.10;;
417;SDS011;49;48.530;9.200;2022-12-24T02:45:51;12.47;;;3.90;;
417;SDS011;49;48.530;9.200;2022-12-24T02:48:23;18.37;;;3.83;;
417;SDS011;49;48.530;9.200;2022-12-24T02:50:56;8.60;;;3.40;;
417;SDS011;49;48.530;9.200;2022-12-24T02:53:24;9.03;;;3.60;;
417;SDS011;49;48.530;9.200;2022-12-24T02:59:07;15.00;;;3.30;;
417;SDS011;49;48.530;9.200;2022-12-24T03:01:57;13.00;;;3.90;;
417;SDS011;49;48.530;9.200;2022-12-24T03:04:30;11.27;;;3.30;;
417;SDS011;49;48.530;9.200;2022-12-24T03:07:06;16.43;;;4.33;;
417;SDS011;49;48.530;9.200;2022-12-24T03:09:45;12.63;;;4.33;;
417;SDS011;49;48.530;9.200;2022-12-24T03:12:22;20.63;;;4.40;;
417;SDS011;49;48.530;9.200;2022-12-24T03:14:54;7.60;;;3.23;;
417;SDS011;49;48.530;9.200;2022-12-24T03:17:23;14.47;;;3.80;;
417;SDS011;49;48.530;9.200;2022-12-24T03:19:50;10.70;;;3.53;;
417;SDS011;49;48.530;9.200;2022-12-24T03:22:21;15.33;;;3.27;;
417;SDS011;49;48.530;9.200;2022-12-24T03:24:49;10.33;;;3.57;;
417;SDS011;49;48.530;9.200;2022-12-24T03:27:16;6.23;;;3.10;;
417;SDS011;49;48.530;9.200;2022-12-24T03:29:43;17.00;;;5.53;;
417;SDS011;49;48.530;9.200;2022-12-24T03:32:12;22.13;;;4.47;;
417;SDS011;49;48.530;9.200;2022-12-24T03:34:40;10.77;;;3.57;;
417;SDS011;49;48.530;9.200;2022-12-24T03:37:07;9.43;;;3.67;;
417;SDS011;49;48.530;9.200;2022-12-24T03:39:34;24.53;;;4.27;;
417;SDS011;49;48.530;9.200;2022-12-24T03:42:01;10.47;;;3.17;;
417;SDS011;49;48.530;9.200;2022-12-24T03:44:28;10.53;;;3.70;;
417;SDS011;49;48.530;9.200;2022-12-24T03:46:55;14.60;;;4.13;;
417;SDS011;49;48.530;9.200;2022-12-24T03:49:22;15.10;;;4.60;;
417;SDS011;49;48.530;9.200;2022-12-24T03:51:50;7.27;;;3.40;;
417;SDS011;49;48.530;9.200;2022-12-24T03:54:17;16.20;;;3.77;;
417;SDS011;49;48.530;9.200;2022-12-24T03:56:44;12.13;;;3.50;;
417;SDS011;49;48.530;9.200;2022-12-24T03:59:11;8.60;;;3.23;;
417;SDS011;49;48.530;9.200;2022-12-24T04:01:38;14.73;;;4.33;;
417;SDS011;49;48.530;9.200;2022-12-24T04:04:05;13.30;;;4.30;;
417;SDS011;49;48.530;9.200;2022-12-24T04:06:32;12.07;;;3.70;;
417;SDS011;49;48.530;9.200;2022-12-24T04:09:01;13.37;;;3.60;;
417;SDS011;49;48.530;9.200;2022-12-24T04:11:29;15.53;;;4.00;;
417;SDS011;49;48.530;9.200;2022-12-24T04:13:56;12.50;;;4.30;;
417;SDS011;49;48.530;9.200;2022-12-24T04:16:23;8.03;;;3.60;;
417;SDS011;49;48.530;9.200;2022-12-24T04:18:51;9.93;;;3.70;;
417;SDS011;49;48.530;9.200;2022-12-24T04:21:17;10.30;;;3.57;;
417;SDS011;49;48.530;9.200;2022-12-24T04:23:45;13.43;;;3.80;;
417;SDS011;49;48.530;9.200;2022-12-24T04:26:16;13.33;;;3.50;;
417;SDS011;49;48.530;9.200;2022-12-24T04:28:43;9.30;;;3.00;;
417;SDS011;49;48.530;9.200;2022-12-24T04:31:11;16.20;;;3.83;;
417;SDS011;49;48.530;9.200;2022-12-24T04:33:40;11.80;;;3.70;;
417;SDS011;49;48.530;9.200;2022-12-24T04:36:09;13.23;;;3.67;;
417;SDS011;49;48.530;9.200;2022-12-24T04:38:38;15.87;;;4.30;;
417;SDS011;49;48.530;9.200;2022-12-24T04:41:06;18.83;;;3.87;;
417;SDS011;49;48.530;9.200;2022-12-24T04:43:37;13.20;;;3.90;;
417;SDS011;49;48.530;9.200;2022-12-24T04:46:04;8.27;;;3.57;;
417;SDS011;49;48.530;9.200;2022-12-24T04:48:32;10.47;;;3.83;;
417;SDS011;49;48.530;9.200;2022-12-24T04:51:00;11.87;;;3.83;;
417;SDS011;49;48.530;9.200;2022-12-24T04:53:31;12.17;;;3.97;;
417;SDS011;49;48.530;9.200;2022-12-24T04:55:59;14.30;;;3.70;;
417;SDS011;49;48.530;9.200;2022-12-24T04:58:26;12.47;;;3.80;;
417;SDS011;49;48.530;9.200;2022-12-24T05:00:55;14.17;;;4.20;;
417;SDS011;49;48.530;9.200;2022-12-24T05:03:22;10.03;;;4.10;;
417;SDS011;49;48.530;9.200;2022-12-24T05:05:49;11.20;;;3.70;;
417;SDS011;49;48.530;9.200;2022-12-24T05:08:16;12.70;;;3.77;;
417;SDS011;49;48.530;9.200;2022-12-24T05:10:53;15.17;;;4.30;;
417;SDS011;49;48.530;9.200;2022-12-24T05:13:21;13.40;;;4.67;;
417;SDS011;49;48.530;9.200;2022-12-24T05:15:48;17.43;;;4.13;;
417;SDS011;49;48.530;9.200;2022-12-24T05:18:16;7.67;;;3.43;;
417;SDS011;49;48.530;9.200;2022-12-24T05:20:44;12.93;;;3.73;;
417;SDS011;49;48.530;9.200;2022-12-24T05:23:12;18.10;;;3.63;;
417;SDS011;49;48.530;9.200;2022-12-24T05:25:59;12.97;;;3.83;;
417;SDS011;49;48.530;9.200;2022-12-24T05:28:43;17.00;;;4.00;;
417;SDS011;49;48.530;9.200;2022-12-24T05:31:10;16.37;;;3.70;;
417;SDS011;49;48.530;9.200;2022-12-24T05:33:38;24.00;;;4.20;;
417;SDS011;49;48.530;9.200;2022-12-24T05:36:05;15.20;;;3.60;;
417;SDS011;49;48.530;9.200;2022-12-24T05:38:33;12.70;;;4.10;;
417;SDS011;49;48.530;9.200;2022-12-24T05:41:00;9.87;;;3.03;;
417;SDS011;49;48.530;9.200;2022-12-24T05:43:27;21.77;;;4.13;;
417;SDS011;49;48.530;9.200;2022-12-24T05:45:57;13.97;;;3.90;;
417;SDS011;49;48.530;9.200;2022-12-24T05:48:24;15.87;;;3.47;;
417;SDS011;49;48.530;9.200;2022-12-24T05:50:53;10.13;;;3.90;;
417;SDS011;49;48.530;9.200;2022-12-24T05:53:20;8.93;;;3.40;;
417;SDS011;49;48.530;9.200;2022-12-24T05:55:47;14.07;;;4.23;;
417;SDS011;49;48.530;9.200;2022-12-24T05:58:14;17.10;;;4.10;;
417;SDS011;49;48.530;9.200;2022-12-24T06:00:41;12.73;;;3.77;;
417;SDS011;49;48.530;9.200;2022-12-24T06:03:08;15.90;;;3.90;;
417;SDS011;49;48.530;9.200;2022-12-24T06:05:35;15.07;;;3.80;;
417;SDS011;49;48.530;9.200;2022-12-24T06:08:07;20.43;;;4.10;;
417;SDS011;49;48.530;9.200;2022-12-24T06:10:34;19.03;;;3.30;;
417;SDS011;49;48.530;9.200;2022-12-24T06:13:00;15.30;;;3.90;;
417;SDS011;49;48.530;9.200;2022-12-24T06:15:27;12.53;;;4.37;;
417;SDS011;49;48.530;9.200;2022-12-24T06:17:54;17.23;;;3.83;;
417;SDS011;49;48.530;9.200;2022-12-24T06:20:21;12.40;;;3.90;;
417;SDS011;49;48.530;9.200;2022-12-24T06:22:48;21.17;;;4.40;;
417;SDS011;49;48.530;9.200;2022-12-24T06:25:16;19.43;;;4.50;;
417;SDS011;49;48.530;9.200;2022-12-24T06:27:44;16.90;;;5.87;;
417;SDS011;49;48.530;9.200;2022-12-24T06:30:11;11.00;;;3.40;;
417;SDS011;49;48.530;9.200;2022-12-24T06:32:38;19.30;;;3.80;;
417;SDS011;49;48.530;9.200;2022-12-24T06:35:05;12.10;;;3.43;;
417;SDS011;49;48.530;9.200;2022-12-24T06:37:32;19.77;;;5.10;;
417;SDS011;49;48.530;9.200;2022-12-24T06:39:59;13.27;;;4.23;;
417;SDS011;49;48.530;9.200;2022-12-24T06:42:28;13.80;;;3.83;;
417;SDS011;49;48.530;9.200;2022-12-24T06:44:55;23.53;;;4.17;;
417;SDS011;49;48.530;9.200;2022-12-24T06:47:22;20.83;;;3.80;;
417;SDS011;49;48.530;9.200;2022-12-24T06:49:49;16.13;;;3.80;;
417;SDS011;49;48.530;9.200;2022-12-24T06:52:16;18.30;;;4.23;;
417;SDS011;49;48.530;9.200;2022-12-24T06:54:43;18.07;;;4.90;;
417;SDS011;49;48.530;9.200;2022-12-24T06:57:10;18.20;;;4.70;;
417;SDS011;49;48.530;9.200;2022-12-24T06:59:39;17.90;;;5.47;;
417;SDS011;49;48.530;9.200;2022-12-24T07:02:06;13.67;;;3.70;;
417;SDS011;49;48.530;9.200;2022-12-24T07:04:34;13.90;;;3.97;;
417;SDS011;49;48.530;9.200;2022-12-24T07:07:01;11.87;;;3.80;;
417;SDS011;49;48.530;9.200;2022-12-24T07:09:28;11.50;;;4.00;;
417;SDS011;49;48.530;9.200;2022-12-24T07:11:55;13.70;;;4.33;;
417;SDS011;49;48.530;9.200;2022-12-24T07:14:22;17.40;;;4.43;;
417;SDS011;49;48.530;9.200;2022-12-24T07:16:51;13.73;;;5.40;;
417;SDS011;49;48.530;9.200;2022-12-24T07:19:18;24.33;;;4.53;;
417;SDS011;49;48.530;9.200;2022-12-24T07:21:46;25.07;;;4.60;;
417;SDS011;49;48.530;9.200;2022-12-24T07:24:14;15.67;;;4.93;;
417;SDS011;49;48.530;9.200;2022-12-24T07:26:41;16.40;;;5.20;;
417;SDS011;49;48.530;9.200;2022-12-24T07:29:08;13.87;;;4.37;;
417;SDS011;49;48.530;9.200;2022-12-24T07:31:37;15.03;;;4.27;;
417;SDS011;49;48.530;9.200;2022-12-24T07:34:05;20.63;;;4.47;;
417;SDS011;49;48.530;9.200;2022-12-24T07:36:33;20.20;;;5.63;;
417;SDS011;49;48.530;9.200;2022-12-24T07:39:00;17.00;;;5.53;;
417;SDS011;49;48.530;9.200;2022-12-24T07:41:27;15.03;;;4.10;;
417;SDS011;49;48.530;9.200;2022-12-24T07:43:54;15.83;;;4.30;;
417;SDS011;49;48.530;9.200;2022-12-24T07:46:21;12.40;;;4.50;;
417;SDS011;49;48.530;9.200;2022-12-24T07:48:48;16.93;;;5.93;;
417;SDS011;49;48.530;9.200;2022-12-24T07:51:16;20.80;;;6.10;;
417;SDS011;49;48.530;9.200;2022-12-24T07:53:43;15.43;;;4.20;;
417;SDS011;49;48.530;9.200;2022-12-24T07:56:12;13.50;;;4.83;;
417;SDS011;49;48.530;9.200;2022-12-24T07:58:42;17.53;;;4.30;;
417;SDS011;49;48.530;9.200;2022-12-24T08:01:09;16.73;;;4.70;;
417;SDS011;49;48.530;9.200;2022-12-24T08:03:37;16.87;;;3.93;;
417;SDS011;49;48.530;9.200;2022-12-24T08:06:04;21.03;;;4.13;;
417;SDS011;49;48.530;9.200;2022-12-24T08:08:33;34.47;;;6.07;;
417;SDS011;49;48.530;9.200;2022-12-24T08:11:00;13.17;;;4.20;;
417;SDS011;49;48.530;9.200;2022-12-24T08:13:28;20.40;;;4.47;;
417;SDS011;49;48.530;9.200;2022-12-24T08:15:55;19.60;;;4.70;;
417;SDS011;49;48.530;9.200;2022-12-24T08:18:23;16.60;;;4.43;;
417;SDS011;49;48.530;9.200;2022-12-24T08:20:53;12.70;;;4.27;;
417;SDS011;49;48.530;9.200;2022-12-24T08:23:21;12.77;;;4.10;;
417;SDS011;49;48.530;9.200;2022-12-24T08:25:52;18.30;;;4.63;;
417;SDS011;49;48.530;9.200;2022-12-24T08:28:20;23.17;;;4.47;;
417;SDS011;49;48.530;9.200;2022-12-24T08:30:47;14.40;;;4.37;;
417;SDS011;49;48.530;9.200;2022-12-24T08:33:15;15.97;;;4.70;;
417;SDS011;49;48.530;9.200;2022-12-24T08:35:45;16.40;;;4.40;;
417;SDS011;49;48.530;9.200;2022-12-24T08:38:17;11.90;;;4.70;;
417;SDS011;49;48.530;9.200;2022-12-24T08:40:45;25.80;;;4.97;;
417;SDS011;49;48.530;9.200;2022-12-24T08:43:15;16.33;;;4.43;;
417;SDS011;49;48.530;9.200;2022-12-24T08:45:43;22.90;;;3.93;;
417;SDS011;49;48.530;9.200;2022-12-24T08:48:14;17.13;;;3.73;;
417;SDS011;49;48.530;9.200;2022-12-24T08:50:41;23.13;;;5.43;;
417;SDS011;49;48.530;9.200;2022-12-24T08:53:09;24.50;;;5.00;;
417;SDS011;49;48.530;9.200;2022-12-24T08:55:44;20.47;;;5.30;;
417;SDS011;49;48.530;9.200;2022-12-24T08:58:12;13.03;;;4.20;;
417;SDS011;49;48.530;9.200;2022-12-24T09:00:41;14.00;;;4.67;;
417;SDS011;49;48.530;9.200;2022-12-24T09:03:09;21.20;;;4.23;;
417;SDS011;49;48.530;9.200;2022-12-24T09:05:40;26.77;;;5.53;;
417;SDS011;49;48.530;9.200;2022-12-24T09:08:07;23.43;;;4.90;;
417;SDS011;49;48.530;9.200;2022-12-24T09:10:34;18.40;;;4.70;;
417;SDS011;49;48.530;9.200;2022-12-24T09:13:01;21.60;;;4.60;;
417;SDS011;49;48.530;9.200;2022-12-24T09:15:30;13.20;;;4.10;;
417;SDS011;49;48.530;9.200;2022-12-24T09:17:57;19.17;;;4.33;;
417;SDS011;49;48.530;9.200;2022-12-24T09:20:24;13.63;;;4.10;;
417;SDS011;49;48.530;9.200;2022-12-24T09:23:05;17.23;;;4.50;;
417;SDS011;49;48.530;9.200;2022-12-24T09:25:32;19.07;;;5.00;;
417;SDS011;49;48.530;9.200;2022-12-24T09:27:59;17.60;;;4.47;;
417;SDS011;49;48.530;9.200;2022-12-24T09:30:26;18.70;;;4.73;;
417;SDS011;49;48.530;9.200;2022-12-24T09:32:54;17.30;;;4.47;;
417;SDS011;49;48.530;9.200;2022-12-24T09:35:21;15.63;;;4.70;;
417;SDS011;49;48.530;9.200;2022-12-24T09:37:48;20.70;;;4.87;;
417;SDS011;49;48.530;9.200;2022-12-24T09:40:28;24.40;;;5.77;;
417;SDS011;49;48.530;9.200;2022-12-24T09:43:01;13.83;;;4.70;;
417;SDS011;49;48.530;9.200;2022-12-24T09:45:33;20.80;;;5.20;;
417;SDS011;49;48.530;9.200;2022-12-24T09:48:08;18.80;;;4.97;;
417;SDS011;49;48.530;9.200;2022-12-24T09:50:39;15.83;;;4.70;;
417;SDS011;49;48.530;9.200;2022-12-24T09:53:13;17.37;;;5.00;;
417;SDS011;49;48.530;9.200;2022-12-24T09:55:45;23.90;;;4.60;;
417;SDS011;49;48.530;9.200;2022-12-24T09:58:18;15.60;;;4.93;;
417;SDS011;49;48.530;9.200;2022-12-24T10:00:54;24.23;;;5.40;;
417;SDS011;49;48.530;9.200;2022-12-24T10:03:27;18.03;;;4.50;;
417;SDS011;49;48.530;9.200;2022-12-24T10:05:59;22.33;;;5.70;;
417;SDS011;49;48.530;9.200;2022-12-24T10:08:34;21.50;;;4.70;;
417;SDS011;49;48.530;9.200;2022-12-24T10:11:11;20.53;;;4.63;;
417;SDS011;49;48.530;9.200;2022-12-24T10:13:53;14.13;;;5.00;;
417;SDS011;49;48.530;9.200;2022-12-24T10:16:32;19.10;;;5.10;;
417;SDS011;49;48.530;9.200;2022-12-24T10:19:11;15.03;;;4.30;;
417;SDS011;49;48.530;9.200;2022-12-24T10:21:51;22.40;;;5.43;;
417;SDS011;49;48.530;9.200;2022-12-24T10:24:34;24.67;;;5.70;;
417;SDS011;49;48.530;9.200;2022-12-24T10:27:11;16.83;;;5.10;;
417;SDS011;49;48.530;9.200;2022-12-24T10:29:41;21.50;;;5.17;;
417;SDS011;49;48.530;9.200;2022-12-24T10:32:14;15.77;;;4.87;;
417;SDS011;49;48.530;9.200;2022-12-24T10:34:50;19.27;;;4.90;;
417;SDS011;49;48.530;9.200;2022-12-24T10:37:24;15.60;;;4.60;;
417;SDS011;49;48.530;9.200;2022-12-24T10:39:53;17.60;;;5.00;;
417;SDS011;49;48.530;9.200;2022-12-24T10:42:22;14.20;;;3.70;;
417;SDS011;49;48.530;9.200;2022-12-24T10:45:00;21.43;;;4.10;;
417;SDS011;49;48.530;9.200;2022-12-24T10:47:30;16.97;;;4.13;;
417;SDS011;49;48.530;9.200;2022-12-24T10:50:02;18.27;;;4.60;;
417;SDS011;49;48.530;9.200;2022-12-24T10:52:36;22.63;;;4.70;;
417;SDS011;49;48.530;9.200;2022-12-24T10:55:08;18.17;;;5.10;;
417;SDS011;49;48.530;9.200;2022-12-24T10:57:37;18.03;;;6.13;;
417;SDS011;49;48.530;9.200;2022-12-24T11:00:17;16.03;;;4.23;;
417;SDS011;49;48.530;9.200;2022-12-24T11:02:46;16.07;;;3.87;;
417;SDS011;49;48.530;9.200;2022-12-24T11:05:33;12.77;;;4.07;;
417;SDS011;49;48.530;9.200;2022-12-24T11:08:01;19.63;;;4.60;;
417;SDS011;49;48.530;9.200;2022-12-24T11:10:43;17.30;;;4.83;;
417;SDS011;49;48.530;9.200;2022-12-24T11:13:23;20.13;;;4.37;;
417;SDS011;49;48.530;9.200;2022-12-24T11:15:58;34.00;;;4.80;;
417;SDS011;49;48.530;9.200;2022-12-24T11:18:31;17.83;;;4.67;;
417;SDS011;49;48.530;9.200;2022-12-24T11:21:04;21.73;;;4.30;;
417;SDS011;49;48.530;9.200;2022-12-24T11:23:39;16.17;;;5.20;;
417;SDS011;49;48.530;9.200;2022-12-24T11:26:20;23.73;;;5.10;;
417;SDS011;49;48.530;9.200;2022-12-24T11:29:02;16.07;;;4.30;;
417;SDS011;49;48.530;9.200;2022-12-24T11:31:31;28.67;;;4.73;;
417;SDS011;49;48.530;9.200;2022-12-24T11:34:15;16.30;;;4.53;;
417;SDS011;49;48.530;9.200;2022-12-24T11:36:53;16.97;;;4.30;;
417;SDS011;49;48.530;9.200;2022-12-24T11:39:37;26.03;;;5.97;;
417;SDS011;49;48.530;9.200;2022-12-24T11:42:18;23.43;;;4.40;;
417;SDS011;49;48.530;9.200;2022-12-24T11:44:53;17.10;;;4.53;;
417;SDS011;49;48.530;9.200;2022-12-24T11:47:30;15.30;;;4.40;;
417;SDS011;49;48.530;9.200;2022-12-24T11:50:17;17.30;;;4.30;;
417;SDS011;49;48.530;9.200;2022-12-24T11:52:49;18.60;;;3.97;;
417;SDS011;49;48.530;9.200;2022-12-24T11:55:34;29.20;;;5.17;;
417;SDS011;49;48.530;9.200;2022-12-24T11:58:20;18.27;;;4.20;;
417;SDS011;49;48.530;9.200;2022-12-24T12:00:55;16.63;;;5.20;;
417;SDS011;49;48.530;9.200;2022-12-24T12:03:29;22.40;;;4.80;;
417;SDS011;49;48.530;9.200;2022-12-24T12:06:02;17.80;;;4.13;;
417;SDS011;49;48.530;9.200;2022-12-24T12:08:39;11.67;;;4.23;;
417;SDS011;49;48.530;9.200;2022-12-24T12:11:15;17.83;;;4.40;;
417;SDS011;49;48.530;9.200;2022-12-24T12:13:45;18.20;;;4.47;;
417;SDS011;49;48.530;9.200;2022-12-24T12:16:15;20.30;;;4.33;;
417;SDS011;49;48.530;9.200;2022-12-24T12:18:49;26.53;;;4.20;;
417;SDS011;49;48.530;9.200;2022-12-24T12:21:23;13.57;;;4.10;;
417;SDS011;49;48.530;9.200;2022-12-24T12:24:05;12.40;;;3.70;;
417;SDS011;49;48.530;9.200;2022-12-24T12:26:52;21.93;;;4.87;;
417;SDS011;49;48.530;9.200;2022-12-24T12:29:29;17.70;;;4.47;;
417;SDS011;49;48.530;9.200;2022-12-24T12:32:00;27.87;;;4.00;;
417;SDS011;49;48.530;9.200;2022-12-24T12:34:35;19.07;;;6.10;;
417;SDS011;49;48.530;9.200;2022-12-24T12:37:17;19.53;;;4.43;;
417;SDS011;49;48.530;9.200;2022-12-24T12:40:01;21.93;;;4.80;;
417;SDS011;49;48.530;9.200;2022-12-24T12:42:30;21.03;;;4.77;;
417;SDS011;49;48.530;9.200;2022-12-24T12:45:21;16.07;;;3.87;;
417;SDS011;49;48.530;9.200;2022-12-24T12:48:12;19.60;;;4.87;;
417;SDS011;49;48.530;9.200;2022-12-24T12:50:56;20.53;;;4.43;;
417;SDS011;49;48.530;9.200;2022-12-24T12:53:38;22.20;;;3.70;;
417;SDS011;49;48.530;9.200;2022-12-24T12:56:29;21.03;;;4.63;;
417;SDS011;49;48.530;9.200;2022-12-24T12:59:06;20.13;;;5.03;;
417;SDS011;49;48.530;9.200;2022-12-24T13:01:41;20.67;;;5.00;;
417;SDS011;49;48.530;9.200;2022-12-24T13:04:42;13.27;;;3.73;;
417;SDS011;49;48.530;9.200;2022-12-24T13:11:05;22.27;;;5.10;;
417;SDS011;49;48.530;9.200;2022-12-24T13:14:13;16.40;;;4.80;;
417;SDS011;49;48.530;9.200;2022-12-24T13:20:01;16.93;;;4.13;;
417;SDS011;49;48.530;9.200;2022-12-24T13:22:49;21.03;;;4.80;;
417;SDS011;49;48.530;9.200;2022-12-24T13:25:23;23.53;;;5.03;;
417;SDS011;49;48.530;9.200;2022-12-24T13:27:56;17.70;;;4.73;;
417;SDS011;49;48.530;9.200;2022-12-24T13:30:46;23.00;;;5.07;;
417;SDS011;49;48.530;9.200;2022-12-24T13:36:14;18.90;;;5.43;;
417;SDS011;49;48.530;9.200;2022-12-24T13:38:42;26.90;;;4.77;;
417;SDS011;49;48.530;9.200;2022-12-24T13:44:26;19.23;;;5.40;;
417;SDS011;49;48.530;9.200;2022-12-24T13:47:16;18.60;;;4.90;;
417;SDS011;49;48.530;9.200;2022-12-24T13:49:50;16.23;;;4.50;;
417;SDS011;49;48.530;9.200;2022-12-24T13:52:25;25.03;;;5.20;;
417;SDS011;49;48.530;9.200;2022-12-24T13:55:06;16.37;;;5.27;;
417;SDS011;49;48.530;9.200;2022-12-24T13:57:41;21.77;;;4.90;;
417;SDS011;49;48.530;9.200;2022-12-24T14:03:19;18.33;;;4.80;;
417;SDS011;49;48.530;9.200;2022-12-24T14:05:54;13.30;;;4.20;;
417;SDS011;49;48.530;9.200;2022-12-24T14:08:34;14.83;;;4.20;;
417;SDS011;49;48.530;9.200;2022-12-24T14:11:06;16.07;;;4.03;;
417;SDS011;49;48.530;9.200;2022-12-24T14:16:57;18.80;;;3.80;;
417;SDS011;49;48.530;9.200;2022-12-24T14:19:37;21.30;;;4.73;;
417;SDS011;49;48.530;9.200;2022-12-24T14:22:15;16.13;;;4.70;;
417;SDS011;49;48.530;9.200;2022-12-24T14:24:49;19.40;;;4.90;;
417;SDS011;49;48.530;9.200;2022-12-24T14:27:23;14.77;;;3.83;;
417;SDS011;49;48.530;9.200;2022-12-24T14:29:55;16.23;;;4.73;;
417;SDS011;49;48.530;9.200;2022-12-24T14:32:33;19.77;;;4.50;;
417;SDS011;49;48.530;9.200;2022-12-24T14:35:13;22.37;;;4.67;;
417;SDS011;49;48.530;9.200;2022-12-24T14:37:44;16.37;;;4.30;;
417;SDS011;49;48.530;9.200;2022-12-24T14:40:15;24.80;;;4.37;;
417;SDS011;49;48.530;9.200;2022-12-24T14:42:47;17.97;;;5.10;;
417;SDS011;49;48.530;9.200;2022-12-24T14:45:26;13.50;;;4.80;;
417;SDS011;49;48.530;9.200;2022-12-24T14:48:10;23.13;;;5.47;;
417;SDS011;49;48.530;9.200;2022-12-24T14:50:47;22.57;;;5.30;;
417;SDS011;49;48.530;9.200;2022-12-24T14:53:38;22.20;;;6.30;;
417;SDS011;49;48.530;9.200;2022-12-24T14:56:17;15.93;;;5.87;;
417;SDS011;49;48.530;9.200;2022-12-24T14:58:51;18.10;;;6.77;;
417;SDS011;49;48.530;9.200;2022-12-24T15:01:35;13.70;;;4.83;;
417;SDS011;49;48.530;9.200;2022-12-24T15:04:15;17.83;;;5.50;;
417;SDS011;49;48.530;9.200;2022-12-24T15:06:48;19.07;;;5.67;;
417;SDS011;49;48.530;9.200;2022-12-24T15:09:28;19.40;;;5.37;;
417;SDS011;49;48.530;9.200;2022-12-24T15:12:03;14.97;;;4.63;;
417;SDS011;49;48.530;9.200;2022-12-24T15:14:34;20.73;;;5.60;;
417;SDS011;49;48.530;9.200;2022-12-24T15:17:09;16.43;;;5.00;;
417;SDS011;49;48.530;9.200;2022-12-24T15:19:43;18.40;;;4.90;;
417;SDS011;49;48.530;9.200;2022-12-24T15:22:22;13.40;;;3.90;;
417;SDS011;49;48.530;9.200;2022-12-24T15:25:00;14.53;;;5.33;;
417;SDS011;49;48.530;9.200;2022-12-24T15:27:42;12.57;;;4.90;;
417;SDS011;49;48.530;9.200;2022-12-24T15:30:15;10.60;;;4.10;;
417;SDS011;49;48.530;9.200;2022-12-24T15:32:54;17.23;;;4.80;;
417;SDS011;49;48.530;9.200;2022-12-24T15:35:29;19.13;;;5.37;;
417;SDS011;49;48.530;9.200;2022-12-24T15:38:10;18.03;;;6.60;;
417;SDS011;49;48.530;9.200;2022-12-24T15:40:52;23.27;;;7.47;;
417;SDS011;49;48.530;9.200;2022-12-24T15:43:20;25.90;;;8.13;;
417;SDS011;49;48.530;9.200;2022-12-24T15:45:59;19.20;;;7.13;;
417;SDS011;49;48.530;9.200;2022-12-24T15:48:42;16.83;;;6.33;;
417;SDS011;49;48.530;9.200;2022-12-24T15:51:19;19.60;;;5.83;;
417;SDS011;49;48.530;9.200;2022-12-24T15:53:57;20.87;;;5.30;;
417;SDS011;49;48.530;9.200;2022-12-24T15:56:30;20.20;;;5.60;;
417;SDS011;49;48.530;9.200;2022-12-24T15:59:11;21.13;;;6.00;;
417;SDS011;49;48.530;9.200;2022-12-24T16:01:46;33.73;;;7.10;;
417;SDS011;49;48.530;9.200;2022-12-24T16:04:20;23.97;;;7.40;;
417;SDS011;49;48.530;9.200;2022-12-24T16:06:53;24.80;;;6.50;;
417;SDS011;49;48.530;9.200;2022-12-24T16:09:58;19.23;;;7.50;;
417;SDS011;49;48.530;9.200;2022-12-24T16:12:39;17.37;;;6.40;;
417;SDS011;49;48.530;9.200;2022-12-24T16:15:19;21.87;;;7.50;;
417;SDS011;49;48.530;9.200;2022-12-24T16:17:52;22.07;;;5.30;;
417;SDS011;49;48.530;9.200;2022-12-24T16:20:25;19.73;;;7.17;;
417;SDS011;49;48.530;9.200;2022-12-24T16:22:58;21.13;;;8.23;;
417;SDS011;49;48.530;9.200;2022-12-24T16:25:32;12.13;;;5.57;;
417;SDS011;49;48.530;9.200;2022-12-24T16:28:10;20.97;;;7.77;;
417;SDS011;49;48.530;9.200;2022-12-24T16:31:12;27.67;;;9.90;;
417;SDS011;49;48.530;9.200;2022-12-24T16:33:51;28.17;;;8.77;;
417;SDS011;49;48.530;9.200;2022-12-24T16:36:25;17.70;;;7.67;;
417;SDS011;49;48.530;9.200;2022-12-24T16:38:57;27.03;;;7.87;;
417;SDS011;49;48.530;9.200;2022-12-24T16:41:43;26.07;;;7.13;;
417;SDS011;49;48.530;9.200;2022-12-24T16:44:29;22.10;;;8.70;;
417;SDS011;49;48.530;9.200;2022-12-24T16:47:00;23.17;;;10.10;;
417;SDS011;49;48.530;9.200;2022-12-24T16:49:30;24.40;;;7.30;;